sensor_id;sensor_type;location;lat;lon;timestamp;P1;durP1;ratioP1;P2;durP2;ratioP2
5805;SDS011;2929;50.810;8.342;2023-07-24T00:00:49;2.67;;;2.47;;
5805;SDS011;2929;50.810;8.342;2023-07-24T00:03:16;2.27;;;2.07;;
5805;SDS011;2929;50.810;8.342;2023-07-24T00:05:43;4.43;;;3.73;;
5805;SDS011;2929;50.810;8.342;2023-07-24T00:08:09;7.50;;;2.43;;
5805;SDS011;2929;50.810;8.342;2023-07-24T00:10:36;5.43;;;2.60;;
5805;SDS011;2929;50.810;8.342;2023-07-24T00:13:03;4.77;;;2.40;;
5805;SDS011;2929;50.810;8.342;2023-07-24T00:15:32;2.50;;;2.30;;
5805;SDS011;2929;50.810;8.342;2023-07-24T00:17:59;2.20;;;2.00;;
5805;SDS011;2929;50.810;8.342;2023-07-24T00:20:26;2.30;;;2.00;;
5805;SDS011;2929;50.810;8.342;2023-07-24T00:22:53;3.10;;;1.87;;
5805;SDS011;2929;50.810;8.342;2023-07-24T00:25:20;2.10;;;2.00;;
5805;SDS011;2929;50.810;8.342;2023-07-24T00:27:47;2.60;;;2.40;;
5805;SDS011;2929;50.810;8.342;2023-07-24T00:30:13;1.90;;;1.77;;
5805;SDS011;2929;50.810;8.342;2023-07-24T00:32:42;5.90;;;2.60;;
5805;SDS011;2929;50.810;8.342;2023-07-24T00:35:09;6.70;;;2.20;;
5805;SDS011;2929;50.810;8.342;2023-07-24T00:37:36;6.20;;;2.17;;
5805;SDS011;2929;50.810;8.342;2023-07-24T00:40:03;4.17;;;2.40;;
5805;SDS011;2929;50.810;8.342;2023-07-24T00:42:31;2.80;;;2.50;;
5805;SDS011;2929;50.810;8.342;2023-07-24T00:44:58;2.60;;;2.40;;
5805;SDS011;2929;50.810;8.342;2023-07-24T00:47:25;7.00;;;2.10;;
5805;SDS011;2929;50.810;8.342;2023-07-24T00:49:54;3.00;;;2.30;;
5805;SDS011;2929;50.810;8.342;2023-07-24T00:52:22;4.10;;;2.10;;
5805;SDS011;2929;50.810;8.342;2023-07-24T00:54:50;4.37;;;2.60;;
5805;SDS011;2929;50.810;8.342;2023-07-24T00:57:17;4.47;;;2.37;;
5805;SDS011;2929;50.810;8.342;2023-07-24T00:59:45;3.90;;;2.67;;
5805;SDS011;2929;50.810;8.342;2023-07-24T01:02:12;2.50;;;2.30;;
5805;SDS011;2929;50.810;8.342;2023-07-24T01:04:39;6.17;;;2.40;;
5805;SDS011;2929;50.810;8.342;2023-07-24T01:07:08;7.13;;;2.57;;
5805;SDS011;2929;50.810;8.342;2023-07-24T01:09:35;2.40;;;2.20;;
5805;SDS011;2929;50.810;8.342;2023-07-24T01:12:02;3.20;;;2.10;;
5805;SDS011;2929;50.810;8.342;2023-07-24T01:14:38;3.43;;;2.30;;
5805;SDS011;2929;50.810;8.342;2023-07-24T01:17:14;3.17;;;2.00;;
5805;SDS011;2929;50.810;8.342;2023-07-24T01:19:43;4.43;;;2.70;;
5805;SDS011;2929;50.810;8.342;2023-07-24T01:22:18;4.03;;;3.10;;
5805;SDS011;2929;50.810;8.342;2023-07-24T01:25:09;7.37;;;3.17;;
5805;SDS011;2929;50.810;8.342;2023-07-24T01:27:47;3.53;;;2.93;;
5805;SDS011;2929;50.810;8.342;2023-07-24T01:30:16;4.67;;;2.50;;
5805;SDS011;2929;50.810;8.342;2023-07-24T01:32:44;5.20;;;2.77;;
5805;SDS011;2929;50.810;8.342;2023-07-24T01:35:11;4.37;;;2.70;;
5805;SDS011;2929;50.810;8.342;2023-07-24T01:37:42;3.60;;;2.60;;
5805;SDS011;2929;50.810;8.342;2023-07-24T01:40:11;4.30;;;3.40;;
5805;SDS011;2929;50.810;8.342;2023-07-24T01:42:39;4.50;;;3.00;;
5805;SDS011;2929;50.810;8.342;2023-07-24T01:45:08;4.60;;;3.33;;
5805;SDS011;2929;50.810;8.342;2023-07-24T01:47:36;9.20;;;3.50;;
5805;SDS011;2929;50.810;8.342;2023-07-24T01:50:03;7.40;;;2.43;;
5805;SDS011;2929;50.810;8.342;2023-07-24T01:52:31;6.70;;;3.00;;
5805;SDS011;2929;50.810;8.342;2023-07-24T01:54:58;6.77;;;2.60;;
5805;SDS011;2929;50.810;8.342;2023-07-24T01:57:25;6.53;;;2.70;;
5805;SDS011;2929;50.810;8.342;2023-07-24T01:59:52;121.37;;;5.67;;
5805;SDS011;2929;50.810;8.342;2023-07-24T02:02:20;5.43;;;2.93;;
5805;SDS011;2929;50.810;8.342;2023-07-24T02:04:47;4.37;;;3.20;;
5805;SDS011;2929;50.810;8.342;2023-07-24T02:07:15;5.90;;;3.10;;
5805;SDS011;2929;50.810;8.342;2023-07-24T02:09:42;6.63;;;3.17;;
5805;SDS011;2929;50.810;8.342;2023-07-24T02:12:09;3.60;;;2.70;;
5805;SDS011;2929;50.810;8.342;2023-07-24T02:14:36;5.87;;;3.30;;
5805;SDS011;2929;50.810;8.342;2023-07-24T02:17:03;4.53;;;3.07;;
5805;SDS011;2929;50.810;8.342;2023-07-24T02:19:32;3.10;;;2.80;;
5805;SDS011;2929;50.810;8.342;2023-07-24T02:21:59;2.47;;;2.27;;
5805;SDS011;2929;50.810;8.342;2023-07-24T02:24:26;3.40;;;2.57;;
5805;SDS011;2929;50.810;8.342;2023-07-24T02:26:53;4.97;;;2.77;;
5805;SDS011;2929;50.810;8.342;2023-07-24T02:29:20;4.80;;;2.70;;
5805;SDS011;2929;50.810;8.342;2023-07-24T02:34:16;6.07;;;3.13;;
5805;SDS011;2929;50.810;8.342;2023-07-24T02:36:44;1.87;;;1.67;;
5805;SDS011;2929;50.810;8.342;2023-07-24T02:39:11;1.83;;;1.73;;
5805;SDS011;2929;50.810;8.342;2023-07-24T02:41:38;2.80;;;2.60;;
5805;SDS011;2929;50.810;8.342;2023-07-24T02:44:05;2.93;;;2.67;;
5805;SDS011;2929;50.810;8.342;2023-07-24T02:46:33;5.23;;;3.40;;
5805;SDS011;2929;50.810;8.342;2023-07-24T02:49:00;4.37;;;2.30;;
5805;SDS011;2929;50.810;8.342;2023-07-24T02:51:28;3.80;;;3.13;;
5805;SDS011;2929;50.810;8.342;2023-07-24T02:53:57;2.67;;;2.47;;
5805;SDS011;2929;50.810;8.342;2023-07-24T02:56:23;2.83;;;2.63;;
5805;SDS011;2929;50.810;8.342;2023-07-24T02:58:51;6.80;;;2.90;;
5805;SDS011;2929;50.810;8.342;2023-07-24T03:01:17;4.53;;;3.30;;
5805;SDS011;2929;50.810;8.342;2023-07-24T03:03:44;2.73;;;2.53;;
5805;SDS011;2929;50.810;8.342;2023-07-24T03:06:11;4.17;;;2.67;;
5805;SDS011;2929;50.810;8.342;2023-07-24T03:08:38;7.00;;;3.80;;
5805;SDS011;2929;50.810;8.342;2023-07-24T03:11:07;5.43;;;3.57;;
5805;SDS011;2929;50.810;8.342;2023-07-24T03:13:34;7.13;;;3.30;;
5805;SDS011;2929;50.810;8.342;2023-07-24T03:16:01;6.57;;;3.30;;
5805;SDS011;2929;50.810;8.342;2023-07-24T03:18:28;7.13;;;3.77;;
5805;SDS011;2929;50.810;8.342;2023-07-24T03:20:56;8.83;;;4.13;;
5805;SDS011;2929;50.810;8.342;2023-07-24T03:23:24;5.20;;;3.60;;
5805;SDS011;2929;50.810;8.342;2023-07-24T03:25:51;5.43;;;3.83;;
5805;SDS011;2929;50.810;8.342;2023-07-24T03:28:19;4.63;;;3.60;;
5805;SDS011;2929;50.810;8.342;2023-07-24T03:30:46;5.87;;;3.50;;
5805;SDS011;2929;50.810;8.342;2023-07-24T03:33:13;4.43;;;3.00;;
5805;SDS011;2929;50.810;8.342;2023-07-24T03:35:40;7.63;;;3.60;;
5805;SDS011;2929;50.810;8.342;2023-07-24T03:38:07;3.97;;;3.57;;
5805;SDS011;2929;50.810;8.342;2023-07-24T03:40:34;4.30;;;3.33;;
5805;SDS011;2929;50.810;8.342;2023-07-24T03:43:03;3.37;;;3.07;;
5805;SDS011;2929;50.810;8.342;2023-07-24T03:45:31;4.37;;;3.00;;
5805;SDS011;2929;50.810;8.342;2023-07-24T03:47:58;3.60;;;3.20;;
5805;SDS011;2929;50.810;8.342;2023-07-24T03:50:25;6.73;;;4.07;;
5805;SDS011;2929;50.810;8.342;2023-07-24T03:52:52;6.00;;;3.87;;
5805;SDS011;2929;50.810;8.342;2023-07-24T03:55:19;4.30;;;3.63;;
5805;SDS011;2929;50.810;8.342;2023-07-24T03:57:46;7.83;;;4.17;;
5805;SDS011;2929;50.810;8.342;2023-07-24T04:00:13;7.87;;;4.43;;
5805;SDS011;2929;50.810;8.342;2023-07-24T04:02:42;6.47;;;4.13;;
5805;SDS011;2929;50.810;8.342;2023-07-24T04:05:09;4.87;;;4.30;;
5805;SDS011;2929;50.810;8.342;2023-07-24T04:07:36;3.70;;;3.40;;
5805;SDS011;2929;50.810;8.342;2023-07-24T04:10:03;3.90;;;3.10;;
5805;SDS011;2929;50.810;8.342;2023-07-24T04:12:31;4.20;;;3.47;;
5805;SDS011;2929;50.810;8.342;2023-07-24T04:14:58;8.10;;;4.70;;
5805;SDS011;2929;50.810;8.342;2023-07-24T04:17:25;7.23;;;4.10;;
5805;SDS011;2929;50.810;8.342;2023-07-24T04:19:57;7.17;;;4.30;;
5805;SDS011;2929;50.810;8.342;2023-07-24T04:22:25;5.87;;;4.30;;
5805;SDS011;2929;50.810;8.342;2023-07-24T04:24:52;6.50;;;4.30;;
5805;SDS011;2929;50.810;8.342;2023-07-24T04:27:19;10.60;;;4.70;;
5805;SDS011;2929;50.810;8.342;2023-07-24T04:29:46;6.77;;;4.30;;
5805;SDS011;2929;50.810;8.342;2023-07-24T04:32:13;4.97;;;3.40;;
5805;SDS011;2929;50.810;8.342;2023-07-24T04:34:40;5.83;;;3.57;;
5805;SDS011;2929;50.810;8.342;2023-07-24T04:37:08;5.80;;;3.90;;
5805;SDS011;2929;50.810;8.342;2023-07-24T04:39:35;4.70;;;3.40;;
5805;SDS011;2929;50.810;8.342;2023-07-24T04:42:04;4.27;;;3.87;;
5805;SDS011;2929;50.810;8.342;2023-07-24T04:44:31;5.40;;;4.10;;
5805;SDS011;2929;50.810;8.342;2023-07-24T04:46:58;6.30;;;4.57;;
5805;SDS011;2929;50.810;8.342;2023-07-24T04:49:28;5.80;;;3.80;;
5805;SDS011;2929;50.810;8.342;2023-07-24T04:51:55;6.70;;;4.50;;
5805;SDS011;2929;50.810;8.342;2023-07-24T04:54:24;7.60;;;4.40;;
5805;SDS011;2929;50.810;8.342;2023-07-24T04:56:51;5.00;;;3.70;;
5805;SDS011;2929;50.810;8.342;2023-07-24T04:59:18;6.43;;;3.80;;
5805;SDS011;2929;50.810;8.342;2023-07-24T05:01:45;7.47;;;4.23;;
5805;SDS011;2929;50.810;8.342;2023-07-24T05:04:11;11.27;;;4.03;;
5805;SDS011;2929;50.810;8.342;2023-07-24T05:06:38;6.30;;;4.20;;
5805;SDS011;2929;50.810;8.342;2023-07-24T05:09:05;5.00;;;4.10;;
5805;SDS011;2929;50.810;8.342;2023-07-24T05:11:34;5.40;;;4.17;;
5805;SDS011;2929;50.810;8.342;2023-07-24T05:14:01;5.90;;;4.50;;
5805;SDS011;2929;50.810;8.342;2023-07-24T05:16:28;7.40;;;4.63;;
5805;SDS011;2929;50.810;8.342;2023-07-24T05:18:56;12.47;;;4.97;;
5805;SDS011;2929;50.810;8.342;2023-07-24T05:21:29;12.27;;;4.77;;
5805;SDS011;2929;50.810;8.342;2023-07-24T05:23:56;11.20;;;4.90;;
5805;SDS011;2929;50.810;8.342;2023-07-24T05:26:23;7.10;;;5.57;;
5805;SDS011;2929;50.810;8.342;2023-07-24T05:28:51;5.90;;;4.17;;
5805;SDS011;2929;50.810;8.342;2023-07-24T05:31:18;5.27;;;4.30;;
5805;SDS011;2929;50.810;8.342;2023-07-24T05:33:45;4.57;;;4.10;;
5805;SDS011;2929;50.810;8.342;2023-07-24T05:36:12;13.43;;;4.10;;
5805;SDS011;2929;50.810;8.342;2023-07-24T05:38:39;6.87;;;3.53;;
5805;SDS011;2929;50.810;8.342;2023-07-24T05:41:06;4.97;;;3.63;;
5805;SDS011;2929;50.810;8.342;2023-07-24T05:43:33;5.00;;;3.20;;
5805;SDS011;2929;50.810;8.342;2023-07-24T05:46:02;5.57;;;3.10;;
5805;SDS011;2929;50.810;8.342;2023-07-24T05:48:29;4.30;;;3.30;;
5805;SDS011;2929;50.810;8.342;2023-07-24T05:50:56;4.73;;;3.30;;
5805;SDS011;2929;50.810;8.342;2023-07-24T05:53:23;4.80;;;2.93;;
5805;SDS011;2929;50.810;8.342;2023-07-24T05:55:56;5.67;;;3.40;;
5805;SDS011;2929;50.810;8.342;2023-07-24T05:58:24;6.43;;;3.00;;
5805;SDS011;2929;50.810;8.342;2023-07-24T06:00:51;5.20;;;3.17;;
5805;SDS011;2929;50.810;8.342;2023-07-24T06:03:19;4.37;;;3.63;;
5805;SDS011;2929;50.810;8.342;2023-07-24T06:05:49;5.10;;;3.60;;
5805;SDS011;2929;50.810;8.342;2023-07-24T06:08:17;3.80;;;3.50;;
5805;SDS011;2929;50.810;8.342;2023-07-24T06:10:45;9.23;;;4.00;;
5805;SDS011;2929;50.810;8.342;2023-07-24T06:13:12;5.13;;;3.30;;
5805;SDS011;2929;50.810;8.342;2023-07-24T06:15:40;4.97;;;3.83;;
5805;SDS011;2929;50.810;8.342;2023-07-24T06:18:07;5.07;;;3.57;;
5805;SDS011;2929;50.810;8.342;2023-07-24T06:20:35;6.00;;;3.27;;
5805;SDS011;2929;50.810;8.342;2023-07-24T06:23:02;4.17;;;3.27;;
5805;SDS011;2929;50.810;8.342;2023-07-24T06:25:33;4.90;;;3.30;;
5805;SDS011;2929;50.810;8.342;2023-07-24T06:28:00;4.80;;;3.70;;
5805;SDS011;2929;50.810;8.342;2023-07-24T06:30:27;7.67;;;2.97;;
5805;SDS011;2929;50.810;8.342;2023-07-24T06:32:54;5.47;;;3.50;;
5805;SDS011;2929;50.810;8.342;2023-07-24T06:35:21;10.47;;;4.03;;
5805;SDS011;2929;50.810;8.342;2023-07-24T06:37:49;5.27;;;3.63;;
5805;SDS011;2929;50.810;8.342;2023-07-24T06:40:16;5.10;;;3.50;;
5805;SDS011;2929;50.810;8.342;2023-07-24T06:42:43;4.97;;;4.00;;
5805;SDS011;2929;50.810;8.342;2023-07-24T06:45:10;4.43;;;3.40;;
5805;SDS011;2929;50.810;8.342;2023-07-24T06:47:37;6.40;;;3.57;;
5805;SDS011;2929;50.810;8.342;2023-07-24T06:50:04;7.20;;;3.90;;
5805;SDS011;2929;50.810;8.342;2023-07-24T06:52:32;6.40;;;4.03;;
5805;SDS011;2929;50.810;8.342;2023-07-24T06:55:01;6.20;;;3.90;;
5805;SDS011;2929;50.810;8.342;2023-07-24T06:57:30;5.40;;;3.57;;
5805;SDS011;2929;50.810;8.342;2023-07-24T06:59:57;8.73;;;3.87;;
5805;SDS011;2929;50.810;8.342;2023-07-24T07:02:24;7.03;;;3.83;;
5805;SDS011;2929;50.810;8.342;2023-07-24T07:04:51;6.00;;;4.50;;
5805;SDS011;2929;50.810;8.342;2023-07-24T07:07:18;6.30;;;4.30;;
5805;SDS011;2929;50.810;8.342;2023-07-24T07:09:45;6.03;;;4.00;;
5805;SDS011;2929;50.810;8.342;2023-07-24T07:12:13;4.40;;;3.90;;
5805;SDS011;2929;50.810;8.342;2023-07-24T07:14:40;5.20;;;4.30;;
5805;SDS011;2929;50.810;8.342;2023-07-24T07:17:07;5.57;;;3.63;;
5805;SDS011;2929;50.810;8.342;2023-07-24T07:19:34;5.33;;;4.23;;
5805;SDS011;2929;50.810;8.342;2023-07-24T07:22:02;9.50;;;4.00;;
5805;SDS011;2929;50.810;8.342;2023-07-24T07:24:29;6.77;;;4.30;;
5805;SDS011;2929;50.810;8.342;2023-07-24T07:26:56;5.50;;;3.80;;
5805;SDS011;2929;50.810;8.342;2023-07-24T07:29:25;6.60;;;3.87;;
5805;SDS011;2929;50.810;8.342;2023-07-24T07:31:51;6.60;;;4.40;;
5805;SDS011;2929;50.810;8.342;2023-07-24T07:34:18;8.83;;;4.60;;
5805;SDS011;2929;50.810;8.342;2023-07-24T07:36:45;6.90;;;4.27;;
5805;SDS011;2929;50.810;8.342;2023-07-24T07:39:12;9.10;;;5.13;;
5805;SDS011;2929;50.810;8.342;2023-07-24T07:41:39;5.27;;;3.80;;
5805;SDS011;2929;50.810;8.342;2023-07-24T07:44:06;6.10;;;4.73;;
5805;SDS011;2929;50.810;8.342;2023-07-24T07:46:35;6.80;;;4.40;;
5805;SDS011;2929;50.810;8.342;2023-07-24T07:49:02;9.00;;;4.50;;
5805;SDS011;2929;50.810;8.342;2023-07-24T07:51:29;6.20;;;4.30;;
5805;SDS011;2929;50.810;8.342;2023-07-24T07:53:56;7.20;;;4.63;;
5805;SDS011;2929;50.810;8.342;2023-07-24T07:56:23;6.90;;;3.97;;
5805;SDS011;2929;50.810;8.342;2023-07-24T07:58:50;6.73;;;3.80;;
5805;SDS011;2929;50.810;8.342;2023-07-24T08:01:17;6.67;;;4.60;;
5805;SDS011;2929;50.810;8.342;2023-07-24T08:03:45;7.10;;;4.10;;
5805;SDS011;2929;50.810;8.342;2023-07-24T08:06:12;7.80;;;3.83;;
5805;SDS011;2929;50.810;8.342;2023-07-24T08:08:39;4.80;;;4.17;;
5805;SDS011;2929;50.810;8.342;2023-07-24T08:11:06;4.80;;;3.77;;
5805;SDS011;2929;50.810;8.342;2023-07-24T08:13:34;7.70;;;4.03;;
5805;SDS011;2929;50.810;8.342;2023-07-24T08:16:01;5.40;;;3.63;;
5805;SDS011;2929;50.810;8.342;2023-07-24T08:18:28;5.50;;;4.30;;
5805;SDS011;2929;50.810;8.342;2023-07-24T08:20:57;5.63;;;4.10;;
5805;SDS011;2929;50.810;8.342;2023-07-24T08:23:24;6.77;;;4.10;;
5805;SDS011;2929;50.810;8.342;2023-07-24T08:25:51;6.70;;;3.97;;
5805;SDS011;2929;50.810;8.342;2023-07-24T08:28:19;6.83;;;4.43;;
5805;SDS011;2929;50.810;8.342;2023-07-24T08:30:46;7.87;;;3.90;;
5805;SDS011;2929;50.810;8.342;2023-07-24T08:33:22;8.13;;;4.50;;
5805;SDS011;2929;50.810;8.342;2023-07-24T08:38:38;6.17;;;4.20;;
5805;SDS011;2929;50.810;8.342;2023-07-24T08:41:06;6.33;;;4.20;;
5805;SDS011;2929;50.810;8.342;2023-07-24T08:43:36;9.33;;;4.73;;
5805;SDS011;2929;50.810;8.342;2023-07-24T08:46:05;6.60;;;4.40;;
5805;SDS011;2929;50.810;8.342;2023-07-24T08:48:33;6.60;;;3.83;;
5805;SDS011;2929;50.810;8.342;2023-07-24T08:51:02;5.53;;;3.87;;
5805;SDS011;2929;50.810;8.342;2023-07-24T08:53:31;19.43;;;4.00;;
5805;SDS011;2929;50.810;8.342;2023-07-24T08:56:00;5.23;;;3.60;;
5805;SDS011;2929;50.810;8.342;2023-07-24T08:58:29;7.57;;;4.03;;
5805;SDS011;2929;50.810;8.342;2023-07-24T09:00:56;7.17;;;4.03;;
5805;SDS011;2929;50.810;8.342;2023-07-24T09:03:23;8.00;;;4.00;;
5805;SDS011;2929;50.810;8.342;2023-07-24T09:05:50;6.80;;;4.47;;
5805;SDS011;2929;50.810;8.342;2023-07-24T09:08:27;5.73;;;3.77;;
5805;SDS011;2929;50.810;8.342;2023-07-24T09:10:56;4.47;;;3.90;;
5805;SDS011;2929;50.810;8.342;2023-07-24T09:13:23;7.50;;;4.20;;
5805;SDS011;2929;50.810;8.342;2023-07-24T09:15:51;5.40;;;3.90;;
5805;SDS011;2929;50.810;8.342;2023-07-24T09:18:18;5.30;;;3.87;;
5805;SDS011;2929;50.810;8.342;2023-07-24T09:20:45;5.70;;;3.17;;
5805;SDS011;2929;50.810;8.342;2023-07-24T09:23:12;6.40;;;3.80;;
5805;SDS011;2929;50.810;8.342;2023-07-24T09:25:40;8.03;;;4.10;;
5805;SDS011;2929;50.810;8.342;2023-07-24T09:28:10;4.10;;;3.43;;
5805;SDS011;2929;50.810;8.342;2023-07-24T09:30:38;5.10;;;4.00;;
5805;SDS011;2929;50.810;8.342;2023-07-24T09:33:06;5.73;;;3.90;;
5805;SDS011;2929;50.810;8.342;2023-07-24T09:35:33;6.27;;;3.77;;
5805;SDS011;2929;50.810;8.342;2023-07-24T09:38:07;4.17;;;3.60;;
5805;SDS011;2929;50.810;8.342;2023-07-24T09:40:38;5.83;;;4.00;;
5805;SDS011;2929;50.810;8.342;2023-07-24T09:43:18;4.80;;;3.60;;
5805;SDS011;2929;50.810;8.342;2023-07-24T09:48:51;4.83;;;3.73;;
5805;SDS011;2929;50.810;8.342;2023-07-24T09:51:18;5.27;;;4.23;;
5805;SDS011;2929;50.810;8.342;2023-07-24T09:53:47;4.83;;;2.97;;
5805;SDS011;2929;50.810;8.342;2023-07-24T09:56:21;4.60;;;3.30;;
5805;SDS011;2929;50.810;8.342;2023-07-24T09:58:51;9.73;;;3.10;;
5805;SDS011;2929;50.810;8.342;2023-07-24T10:01:20;3.50;;;2.60;;
5805;SDS011;2929;50.810;8.342;2023-07-24T10:03:49;5.30;;;3.10;;
5805;SDS011;2929;50.810;8.342;2023-07-24T10:06:16;4.60;;;3.00;;
5805;SDS011;2929;50.810;8.342;2023-07-24T10:08:44;5.30;;;3.30;;
5805;SDS011;2929;50.810;8.342;2023-07-24T10:11:17;6.40;;;3.27;;
5805;SDS011;2929;50.810;8.342;2023-07-24T10:13:45;5.73;;;3.80;;
5805;SDS011;2929;50.810;8.342;2023-07-24T10:16:14;4.60;;;3.30;;
5805;SDS011;2929;50.810;8.342;2023-07-24T10:18:42;4.30;;;3.40;;
5805;SDS011;2929;50.810;8.342;2023-07-24T10:21:10;3.70;;;3.20;;
5805;SDS011;2929;50.810;8.342;2023-07-24T10:23:40;5.90;;;4.10;;
5805;SDS011;2929;50.810;8.342;2023-07-24T10:26:09;5.13;;;3.57;;
5805;SDS011;2929;50.810;8.342;2023-07-24T10:28:37;7.33;;;4.60;;
5805;SDS011;2929;50.810;8.342;2023-07-24T10:31:06;5.93;;;3.60;;
5805;SDS011;2929;50.810;8.342;2023-07-24T10:33:43;4.57;;;3.67;;
5805;SDS011;2929;50.810;8.342;2023-07-24T10:36:12;4.30;;;3.57;;
5805;SDS011;2929;50.810;8.342;2023-07-24T10:38:44;6.63;;;3.17;;
5805;SDS011;2929;50.810;8.342;2023-07-24T10:41:11;4.10;;;3.17;;
5805;SDS011;2929;50.810;8.342;2023-07-24T10:43:43;6.93;;;3.03;;
5805;SDS011;2929;50.810;8.342;2023-07-24T10:46:11;5.50;;;3.90;;
5805;SDS011;2929;50.810;8.342;2023-07-24T10:48:43;7.63;;;3.20;;
5805;SDS011;2929;50.810;8.342;2023-07-24T10:51:10;7.60;;;3.07;;
5805;SDS011;2929;50.810;8.342;2023-07-24T10:53:41;8.03;;;3.57;;
5805;SDS011;2929;50.810;8.342;2023-07-24T10:56:10;4.03;;;3.37;;
5805;SDS011;2929;50.810;8.342;2023-07-24T10:58:37;8.63;;;3.93;;
5805;SDS011;2929;50.810;8.342;2023-07-24T11:01:05;6.70;;;4.10;;
5805;SDS011;2929;50.810;8.342;2023-07-24T11:03:35;3.93;;;3.60;;
5805;SDS011;2929;50.810;8.342;2023-07-24T11:06:03;4.70;;;3.33;;
5805;SDS011;2929;50.810;8.342;2023-07-24T11:08:30;6.50;;;4.10;;
5805;SDS011;2929;50.810;8.342;2023-07-24T11:10:59;6.17;;;3.73;;
5805;SDS011;2929;50.810;8.342;2023-07-24T11:13:28;7.00;;;4.23;;
5805;SDS011;2929;50.810;8.342;2023-07-24T11:15:55;5.43;;;3.50;;
5805;SDS011;2929;50.810;8.342;2023-07-24T11:18:22;4.27;;;3.10;;
5805;SDS011;2929;50.810;8.342;2023-07-24T11:20:52;8.07;;;4.63;;
5805;SDS011;2929;50.810;8.342;2023-07-24T11:23:22;5.00;;;3.90;;
5805;SDS011;2929;50.810;8.342;2023-07-24T11:25:50;4.13;;;3.47;;
5805;SDS011;2929;50.810;8.342;2023-07-24T11:28:18;5.40;;;3.80;;
5805;SDS011;2929;50.810;8.342;2023-07-24T11:30:45;6.73;;;4.20;;
5805;SDS011;2929;50.810;8.342;2023-07-24T11:33:14;5.80;;;4.07;;
5805;SDS011;2929;50.810;8.342;2023-07-24T11:35:42;6.37;;;4.03;;
5805;SDS011;2929;50.810;8.342;2023-07-24T11:38:09;4.17;;;3.40;;
5805;SDS011;2929;50.810;8.342;2023-07-24T11:40:38;6.03;;;3.70;;
5805;SDS011;2929;50.810;8.342;2023-07-24T11:43:14;5.63;;;3.63;;
5805;SDS011;2929;50.810;8.342;2023-07-24T11:45:42;4.30;;;3.50;;
5805;SDS011;2929;50.810;8.342;2023-07-24T11:48:11;4.83;;;4.00;;
5805;SDS011;2929;50.810;8.342;2023-07-24T11:50:41;4.33;;;3.87;;
5805;SDS011;2929;50.810;8.342;2023-07-24T11:53:18;5.37;;;3.87;;
5805;SDS011;2929;50.810;8.342;2023-07-24T11:55:47;4.17;;;3.50;;
5805;SDS011;2929;50.810;8.342;2023-07-24T11:58:14;6.50;;;4.60;;
5805;SDS011;2929;50.810;8.342;2023-07-24T12:00:42;4.27;;;3.17;;
5805;SDS011;2929;50.810;8.342;2023-07-24T12:03:09;6.40;;;3.87;;
5805;SDS011;2929;50.810;8.342;2023-07-24T12:05:37;4.00;;;3.40;;
5805;SDS011;2929;50.810;8.342;2023-07-24T12:08:05;7.93;;;4.10;;
5805;SDS011;2929;50.810;8.342;2023-07-24T12:10:35;7.70;;;4.07;;
5805;SDS011;2929;50.810;8.342;2023-07-24T12:13:04;5.33;;;3.97;;
5805;SDS011;2929;50.810;8.342;2023-07-24T12:15:32;4.30;;;3.40;;
5805;SDS011;2929;50.810;8.342;2023-07-24T12:18:00;5.80;;;3.80;;
5805;SDS011;2929;50.810;8.342;2023-07-24T12:20:28;5.20;;;3.70;;
5805;SDS011;2929;50.810;8.342;2023-07-24T12:22:56;4.90;;;3.83;;
5805;SDS011;2929;50.810;8.342;2023-07-24T12:25:23;4.87;;;3.90;;
5805;SDS011;2929;50.810;8.342;2023-07-24T12:27:50;5.43;;;3.57;;
5805;SDS011;2929;50.810;8.342;2023-07-24T12:30:19;5.57;;;3.70;;
5805;SDS011;2929;50.810;8.342;2023-07-24T12:32:47;6.43;;;4.30;;
5805;SDS011;2929;50.810;8.342;2023-07-24T12:35:15;3.87;;;3.30;;
5805;SDS011;2929;50.810;8.342;2023-07-24T12:37:42;6.33;;;3.30;;
5805;SDS011;2929;50.810;8.342;2023-07-24T12:40:11;6.63;;;4.10;;
5805;SDS011;2929;50.810;8.342;2023-07-24T12:42:38;9.20;;;3.93;;
5805;SDS011;2929;50.810;8.342;2023-07-24T12:45:05;4.00;;;3.40;;
5805;SDS011;2929;50.810;8.342;2023-07-24T12:47:34;5.37;;;3.80;;
5805;SDS011;2929;50.810;8.342;2023-07-24T12:50:02;5.43;;;3.87;;
5805;SDS011;2929;50.810;8.342;2023-07-24T12:52:29;5.40;;;3.80;;
5805;SDS011;2929;50.810;8.342;2023-07-24T12:54:56;6.23;;;3.83;;
5805;SDS011;2929;50.810;8.342;2023-07-24T12:57:25;3.77;;;3.30;;
5805;SDS011;2929;50.810;8.342;2023-07-24T12:59:53;9.27;;;3.70;;
5805;SDS011;2929;50.810;8.342;2023-07-24T13:02:22;6.30;;;3.60;;
5805;SDS011;2929;50.810;8.342;2023-07-24T13:04:54;6.00;;;3.77;;
5805;SDS011;2929;50.810;8.342;2023-07-24T13:07:21;4.70;;;3.70;;
5805;SDS011;2929;50.810;8.342;2023-07-24T13:09:48;5.73;;;4.30;;
5805;SDS011;2929;50.810;8.342;2023-07-24T13:12:29;4.63;;;3.70;;
5805;SDS011;2929;50.810;8.342;2023-07-24T13:15:00;8.87;;;4.17;;
5805;SDS011;2929;50.810;8.342;2023-07-24T13:17:46;4.80;;;4.30;;
5805;SDS011;2929;50.810;8.342;2023-07-24T13:20:33;5.40;;;4.30;;
5805;SDS011;2929;50.810;8.342;2023-07-24T13:23:21;4.80;;;3.80;;
5805;SDS011;2929;50.810;8.342;2023-07-24T13:25:59;5.40;;;4.03;;
5805;SDS011;2929;50.810;8.342;2023-07-24T13:28:46;5.60;;;4.13;;
5805;SDS011;2929;50.810;8.342;2023-07-24T13:31:37;7.37;;;4.40;;
5805;SDS011;2929;50.810;8.342;2023-07-24T13:34:12;6.30;;;4.40;;
5805;SDS011;2929;50.810;8.342;2023-07-24T13:36:40;4.57;;;3.40;;
5805;SDS011;2929;50.810;8.342;2023-07-24T13:39:07;5.87;;;3.97;;
5805;SDS011;2929;50.810;8.342;2023-07-24T13:41:35;4.87;;;3.93;;
5805;SDS011;2929;50.810;8.342;2023-07-24T13:44:03;6.23;;;4.07;;
5805;SDS011;2929;50.810;8.342;2023-07-24T13:46:30;5.03;;;3.90;;
5805;SDS011;2929;50.810;8.342;2023-07-24T13:48:58;4.90;;;3.60;;
5805;SDS011;2929;50.810;8.342;2023-07-24T13:51:25;3.77;;;3.37;;
5805;SDS011;2929;50.810;8.342;2023-07-24T13:53:53;6.57;;;3.53;;
5805;SDS011;2929;50.810;8.342;2023-07-24T13:56:21;8.17;;;3.17;;
5805;SDS011;2929;50.810;8.342;2023-07-24T13:58:49;5.80;;;3.77;;
5805;SDS011;2929;50.810;8.342;2023-07-24T14:01:16;4.17;;;3.40;;
5805;SDS011;2929;50.810;8.342;2023-07-24T14:03:43;4.30;;;2.60;;
5805;SDS011;2929;50.810;8.342;2023-07-24T14:06:10;3.90;;;2.87;;
5805;SDS011;2929;50.810;8.342;2023-07-24T14:08:37;2.97;;;2.50;;
5805;SDS011;2929;50.810;8.342;2023-07-24T14:11:06;4.00;;;2.50;;
5805;SDS011;2929;50.810;8.342;2023-07-24T14:13:33;7.30;;;2.50;;
5805;SDS011;2929;50.810;8.342;2023-07-24T14:16:00;1.77;;;1.67;;
5805;SDS011;2929;50.810;8.342;2023-07-24T14:18:28;2.70;;;1.50;;
5805;SDS011;2929;50.810;8.342;2023-07-24T14:20:55;1.60;;;1.50;;
5805;SDS011;2929;50.810;8.342;2023-07-24T14:23:24;1.63;;;1.53;;
5805;SDS011;2929;50.810;8.342;2023-07-24T14:25:52;1.37;;;1.27;;
5805;SDS011;2929;50.810;8.342;2023-07-24T14:28:20;1.77;;;1.53;;
5805;SDS011;2929;50.810;8.342;2023-07-24T14:30:48;3.43;;;1.80;;
5805;SDS011;2929;50.810;8.342;2023-07-24T14:33:15;2.03;;;1.83;;
5805;SDS011;2929;50.810;8.342;2023-07-24T14:35:42;3.37;;;2.07;;
5805;SDS011;2929;50.810;8.342;2023-07-24T14:38:09;2.40;;;1.70;;
5805;SDS011;2929;50.810;8.342;2023-07-24T14:40:37;3.53;;;1.87;;
5805;SDS011;2929;50.810;8.342;2023-07-24T14:43:05;2.20;;;1.80;;
5805;SDS011;2929;50.810;8.342;2023-07-24T14:45:34;3.33;;;1.43;;
5805;SDS011;2929;50.810;8.342;2023-07-24T14:48:02;4.93;;;1.37;;
5805;SDS011;2929;50.810;8.342;2023-07-24T14:50:29;5.30;;;1.30;;
5805;SDS011;2929;50.810;8.342;2023-07-24T14:52:56;1.27;;;1.20;;
5805;SDS011;2929;50.810;8.342;2023-07-24T14:55:23;1.10;;;0.90;;
5805;SDS011;2929;50.810;8.342;2023-07-24T14:57:51;1.33;;;1.10;;
5805;SDS011;2929;50.810;8.342;2023-07-24T15:00:18;1.00;;;1.00;;
5805;SDS011;2929;50.810;8.342;2023-07-24T15:02:46;1.30;;;1.20;;
5805;SDS011;2929;50.810;8.342;2023-07-24T15:05:13;1.97;;;1.30;;
5805;SDS011;2929;50.810;8.342;2023-07-24T15:07:40;1.83;;;1.30;;
5805;SDS011;2929;50.810;8.342;2023-07-24T15:10:08;1.93;;;1.30;;
5805;SDS011;2929;50.810;8.342;2023-07-24T15:12:35;1.20;;;1.10;;
5805;SDS011;2929;50.810;8.342;2023-07-24T15:15:02;1.27;;;1.10;;
5805;SDS011;2929;50.810;8.342;2023-07-24T15:17:30;1.00;;;0.90;;
5805;SDS011;2929;50.810;8.342;2023-07-24T15:19:58;5.93;;;1.60;;
5805;SDS011;2929;50.810;8.342;2023-07-24T15:22:25;8.23;;;2.03;;
5805;SDS011;2929;50.810;8.342;2023-07-24T15:24:52;7.93;;;1.73;;
5805;SDS011;2929;50.810;8.342;2023-07-24T15:27:19;2.63;;;1.87;;
5805;SDS011;2929;50.810;8.342;2023-07-24T15:29:46;5.00;;;1.70;;